Aérodrome :
LOGIN :

S'inscrire | Disclaimer

   EN    FR    IT 

 










Légende :    VFR   VFR Marginal   IFR   IFR Intensif   IFR Très Intensif
Visi : 
Plafond : 
>= 8 km
>= 3000ft
5 à 8 km
1000 à 3000 ft
1500m à 5 km
500 à 1000 ft
800 à 1500m
200 à 500 ft
< 800m
< 200 ft
Symboles :   Orages  Brouillard  Fortes neiges  Fortes précipitations  Vent > 20 kt
SIGMETs :   Divers  Orages  Givrage  Turbulence  Onde Orograph.  Cendres Volcan.







- Altitude de l'aérodrome : 20 ft


EBFN - Koksijde

DERNIER METAR :
  • 240825Z 33008KT 9999 FEW250 15/11 Q1016 BLU BLU

METARs EXPIRÉS :
  • 240755Z 29009KT 9999 FEW010 SCT250 15/11 Q1016 BLU BLU
  • 240725Z 29011KT 8000 BR FEW009 SCT250 14/11 Q1016 BLU BLU
  • 240722Z 29010KT 8000 BR FEW009 SCT250 14/11 Q1016 BLU BLU
  • 240655Z 28009KT 5000 BR FEW010 SCT250 14/11 Q1016 WHT BLU
  • 240653Z 28008KT 5000 BR FEW010 SCT250 13/10 Q1016 WHT BLU
  • 240625Z 24005KT 4300 BR FEW130 12/09 Q1016 GRN WHT BECMG BLU
  • 240555Z 24005KT 3900 BR FEW130 11/09 Q1016 GRN WHT BECMG BLU
  • 240553Z 24005KT 3900 BR FEW130 11/09 Q1016 GRN WHT BECMG BLU

TAF TAF EBFN
Valide du 24 à 07h jusqu'au 24 à 16h UTC


240541Z 2407/2416 27007KT 6000 SCT070 SCT200
BECMG 2207/2209 9999 FEW035 BKN070
BECMG 2409/2411 36006KT FEW040 SCT080
Pas de NOTAMs connus pour ce terrain.



MET'MAP, la Météo Aéronautique d'un coup d'oeil ! - Copyright ORBIFLY Décembre 2007 - Disclaimer

ORBIFLY MET'MAP TEAM :

Programmation & Développement : Alexandra Zaïnal
Conception & Développement : Baudouin d'Aumeries
Co-Programmation & Développement : Marc-Olivier Méhu
Soutien technique & logistique : Manuel Goepfert

Contact : metmap@orbifly.com




SOURCES & CREDITS :

   NOAA